createdAt,value
2022-10-18T00:00:35.609Z,9.80
2022-10-18T00:03:02.025Z,9.23
2022-10-18T00:05:28.617Z,8.77
2022-10-18T00:07:55.189Z,9.35
2022-10-18T00:10:21.893Z,8.98
2022-10-18T00:12:48.347Z,7.72
2022-10-18T00:15:16.020Z,9.68
2022-10-18T00:17:42.750Z,9.05
2022-10-18T00:20:10.313Z,9.65
2022-10-18T00:22:38.770Z,7.70
2022-10-18T00:25:06.672Z,8.48
2022-10-18T00:27:33.422Z,9.48
2022-10-18T00:30:00.175Z,7.22
2022-10-18T00:32:27.007Z,8.15
2022-10-18T00:34:53.535Z,7.18
2022-10-18T00:37:20.444Z,8.65
2022-10-18T00:39:49.107Z,7.18
2022-10-18T00:42:19.892Z,6.05
2022-10-18T00:44:47.880Z,7.68
2022-10-18T00:47:16.342Z,11.30
2022-10-18T00:49:46.445Z,11.07
2022-10-18T00:52:23.251Z,6.05
2022-10-18T00:54:50.713Z,8.73
2022-10-18T00:57:17.688Z,8.07
2022-10-18T00:59:44.904Z,8.45
2022-10-18T01:02:11.610Z,7.00
2022-10-18T01:04:38.391Z,8.90
2022-10-18T01:07:11.400Z,7.72
2022-10-18T01:09:46.273Z,6.15
2022-10-18T01:12:50.665Z,6.25
2022-10-18T01:15:26.327Z,8.20
2022-10-18T01:18:05.792Z,8.15
2022-10-18T01:20:45.197Z,6.72
2022-10-18T01:23:23.744Z,7.85
2022-10-18T01:25:55.922Z,7.53
2022-10-18T01:28:34.587Z,8.68
2022-10-18T01:31:05.098Z,8.80
2022-10-18T01:33:34.582Z,6.95
2022-10-18T01:36:08.356Z,5.88
2022-10-18T01:38:36.906Z,6.47
2022-10-18T01:41:03.930Z,6.55
2022-10-18T01:43:31.048Z,7.72
2022-10-18T01:46:00.794Z,5.57
2022-10-18T01:48:27.244Z,9.07
2022-10-18T01:50:54.214Z,7.97
2022-10-18T01:53:50.893Z,4.97
2022-10-18T01:56:41.734Z,5.55
2022-10-18T01:59:28.086Z,6.82
2022-10-18T02:02:16.373Z,7.53
2022-10-18T02:04:55.917Z,5.60
2022-10-18T02:07:29.655Z,5.93
2022-10-18T02:10:03.775Z,4.95
2022-10-18T02:12:31.466Z,5.25
2022-10-18T02:15:02.960Z,5.43
2022-10-18T02:17:30.659Z,6.65
2022-10-18T02:19:57.345Z,7.30
2022-10-18T02:22:28.317Z,7.13
2022-10-18T02:24:56.427Z,8.15
2022-10-18T02:27:23.053Z,5.45
2022-10-18T02:29:49.678Z,5.38
2022-10-18T02:32:31.233Z,6.43
2022-10-18T02:35:18.922Z,5.85
2022-10-18T02:37:49.429Z,5.03
2022-10-18T02:40:19.478Z,6.78
2022-10-18T02:42:50.906Z,7.80
2022-10-18T02:45:17.788Z,6.38
2022-10-18T02:47:44.281Z,4.70
2022-10-18T02:50:18.879Z,8.77
2022-10-18T02:52:45.989Z,5.97
2022-10-18T02:55:12.530Z,5.55
2022-10-18T02:57:46.873Z,5.88
2022-10-18T03:00:14.157Z,7.15
2022-10-18T03:02:40.604Z,9.30
2022-10-18T03:05:09.594Z,9.40
2022-10-18T03:07:36.145Z,7.18
2022-10-18T03:10:03.090Z,7.30
2022-10-18T03:12:32.905Z,6.50
2022-10-18T03:14:59.317Z,6.63
2022-10-18T03:19:52.193Z,5.78
2022-10-18T03:22:18.722Z,8.02
2022-10-18T03:24:45.558Z,8.00
2022-10-18T03:27:12.091Z,8.45
2022-10-18T03:29:38.551Z,8.70
2022-10-18T03:32:05.172Z,5.03
2022-10-18T03:34:32.684Z,7.97
2022-10-18T03:37:02.091Z,5.00
2022-10-18T03:39:31.169Z,5.88
2022-10-18T03:41:57.626Z,5.28
2022-10-18T03:44:27.638Z,8.43
2022-10-18T03:46:54.048Z,8.68
2022-10-18T03:49:21.090Z,8.50
2022-10-18T03:51:47.569Z,6.30
2022-10-18T03:54:13.996Z,7.50
2022-10-18T03:56:40.476Z,6.68
2022-10-18T03:59:06.922Z,5.72
2022-10-18T04:01:33.362Z,8.10
2022-10-18T04:03:59.807Z,5.88
2022-10-18T04:06:26.229Z,6.15
2022-10-18T04:08:52.755Z,6.35
2022-10-18T04:11:19.265Z,5.72
2022-10-18T04:13:45.696Z,8.10
2022-10-18T04:16:12.166Z,6.20
2022-10-18T04:18:38.611Z,6.60
2022-10-18T04:21:05.116Z,8.48
2022-10-18T04:23:32.811Z,5.22
2022-10-18T04:26:05.951Z,7.28
2022-10-18T04:28:33.673Z,8.20
2022-10-18T04:31:00.223Z,8.68
2022-10-18T04:33:26.714Z,8.65
2022-10-18T04:35:57.716Z,6.50
2022-10-18T04:38:24.173Z,7.53
2022-10-18T04:40:50.694Z,5.70
2022-10-18T04:43:17.279Z,4.63
2022-10-18T04:45:46.980Z,9.05
2022-10-18T04:48:14.245Z,8.63
2022-10-18T04:50:40.732Z,8.80
2022-10-18T04:53:07.193Z,9.57
2022-10-18T04:55:33.630Z,6.55
2022-10-18T04:58:00.934Z,8.70
2022-10-18T05:00:27.348Z,9.30
2022-10-18T05:05:27.037Z,5.93
2022-10-18T05:07:59.684Z,5.55
2022-10-18T05:10:26.530Z,8.80
2022-10-18T05:12:52.973Z,5.40
2022-10-18T05:15:19.436Z,6.63
2022-10-18T05:17:46.243Z,5.70
2022-10-18T05:22:44.415Z,6.18
2022-10-18T05:25:10.901Z,10.93
2022-10-18T05:27:37.809Z,8.88
2022-10-18T05:30:05.770Z,6.55
2022-10-18T05:32:32.619Z,6.68
2022-10-18T05:35:02.234Z,7.88
2022-10-18T05:37:28.770Z,9.77
2022-10-18T05:39:55.317Z,11.10
2022-10-18T05:42:21.981Z,11.57
2022-10-18T05:44:49.149Z,9.20
2022-10-18T05:47:15.621Z,7.35
2022-10-18T05:49:42.426Z,6.97
2022-10-18T05:52:08.918Z,8.23
2022-10-18T05:54:35.385Z,9.27
2022-10-18T05:57:01.805Z,8.18
2022-10-18T05:59:28.256Z,5.85
2022-10-18T06:01:59.355Z,6.72
2022-10-18T06:04:26.092Z,8.05
2022-10-18T06:06:53.981Z,9.23
2022-10-18T06:09:20.464Z,8.27
2022-10-18T06:11:46.941Z,8.68
2022-10-18T06:14:14.400Z,6.82
2022-10-18T06:16:41.445Z,8.60
2022-10-18T06:19:07.875Z,6.53
2022-10-18T06:21:34.721Z,6.40
2022-10-18T06:24:01.177Z,5.93
2022-10-18T06:26:33.869Z,9.40
2022-10-18T06:31:27.221Z,5.13
2022-10-18T06:33:56.117Z,5.95
2022-10-18T06:36:22.799Z,7.10
2022-10-18T06:38:50.702Z,9.60
2022-10-18T06:41:20.495Z,8.10
2022-10-18T06:43:51.278Z,6.15
2022-10-18T06:46:17.784Z,5.55
2022-10-18T06:48:48.232Z,7.68
2022-10-18T06:51:15.370Z,6.53
2022-10-18T06:53:48.735Z,6.15
2022-10-18T06:56:25.953Z,5.70
2022-10-18T06:58:52.536Z,5.47
2022-10-18T07:01:22.960Z,5.45
2022-10-18T07:03:51.694Z,8.65
2022-10-18T07:06:19.894Z,7.15
2022-10-18T07:08:52.977Z,7.07
2022-10-18T07:11:25.077Z,9.50
2022-10-18T07:13:54.599Z,9.05
2022-10-18T07:16:21.400Z,8.00
2022-10-18T07:18:50.301Z,7.85
2022-10-18T07:21:20.282Z,6.22
2022-10-18T07:23:47.207Z,5.75
2022-10-18T07:26:25.243Z,6.75
2022-10-18T07:28:55.371Z,6.68
2022-10-18T07:31:28.151Z,7.22
2022-10-18T07:36:22.117Z,6.20
2022-10-18T07:38:49.496Z,7.38
2022-10-18T07:41:17.136Z,9.57
2022-10-18T07:43:48.400Z,7.60
2022-10-18T07:46:15.750Z,11.60
2022-10-18T07:48:45.654Z,8.40
2022-10-18T07:51:13.275Z,9.85
2022-10-18T07:53:39.796Z,8.20
2022-10-18T07:56:11.806Z,7.43
2022-10-18T07:58:38.281Z,7.75
2022-10-18T08:01:06.710Z,10.60
2022-10-18T08:03:33.654Z,11.00
2022-10-18T08:06:00.129Z,11.02
2022-10-18T08:08:28.386Z,10.45
2022-10-18T08:10:55.052Z,11.15
2022-10-18T08:13:25.302Z,10.85
2022-10-18T08:15:51.699Z,11.93
2022-10-18T08:18:18.123Z,8.60
2022-10-18T08:20:45.272Z,8.38
2022-10-18T08:23:14.665Z,10.48
2022-10-18T08:25:43.671Z,11.27
2022-10-18T08:28:13.892Z,11.73
2022-10-18T08:30:40.647Z,11.70
2022-10-18T08:33:11.702Z,10.80
2022-10-18T08:35:38.192Z,10.63
2022-10-18T08:38:04.728Z,13.07
2022-10-18T08:40:46.194Z,10.88
2022-10-18T08:43:24.784Z,11.90
2022-10-18T08:45:54.140Z,9.60
2022-10-18T08:48:25.995Z,11.35
2022-10-18T08:50:54.489Z,9.98
2022-10-18T08:53:29.553Z,10.93
2022-10-18T08:56:14.922Z,11.25
2022-10-18T08:58:44.126Z,12.00
2022-10-18T09:01:25.694Z,11.00
2022-10-18T09:04:28.266Z,11.95
2022-10-18T09:07:25.742Z,11.57
2022-10-18T09:10:21.827Z,12.30
2022-10-18T09:13:22.102Z,12.18
2022-10-18T09:16:02.631Z,7.95
2022-10-18T09:18:43.198Z,8.65
2022-10-18T09:21:21.157Z,8.02
2022-10-18T09:23:58.074Z,10.55
2022-10-18T09:26:25.143Z,11.50
2022-10-18T09:29:05.454Z,10.73
2022-10-18T09:31:48.547Z,10.35
2022-10-18T09:34:41.069Z,8.75
2022-10-18T09:37:17.836Z,8.05
2022-10-18T09:39:45.815Z,9.43
2022-10-18T09:42:26.715Z,7.57
2022-10-18T09:44:59.830Z,9.82
2022-10-18T09:47:34.084Z,10.73
2022-10-18T09:50:21.644Z,7.95
2022-10-18T09:53:18.599Z,7.93
2022-10-18T09:55:58.845Z,8.05
2022-10-18T09:58:30.073Z,8.48
2022-10-18T10:00:56.607Z,6.63
2022-10-18T10:03:23.437Z,8.20
2022-10-18T10:06:03.127Z,8.20
2022-10-18T10:08:34.142Z,5.88
2022-10-18T10:11:00.596Z,6.65
2022-10-18T10:13:27.918Z,9.07
2022-10-18T10:15:58.328Z,10.45
2022-10-18T10:18:43.759Z,7.00
2022-10-18T10:21:15.139Z,8.65
2022-10-18T10:23:47.034Z,7.38
2022-10-18T10:26:27.640Z,6.95
2022-10-18T10:28:54.252Z,7.57
2022-10-18T10:31:31.562Z,6.35
2022-10-18T10:34:00.380Z,8.68
2022-10-18T10:36:27.767Z,9.60
2022-10-18T10:39:18.688Z,7.57
2022-10-18T10:41:49.766Z,9.30
2022-10-18T10:44:28.048Z,7.60
2022-10-18T10:46:55.148Z,5.85
2022-10-18T10:49:40.084Z,5.63
2022-10-18T10:52:26.699Z,4.75
2022-10-18T10:55:33.785Z,4.05
2022-10-18T10:57:46.440Z,5.38
2022-10-18T11:00:43.185Z,4.72
2022-10-18T11:03:29.080Z,4.88
2022-10-18T11:05:58.055Z,4.47
2022-10-18T11:08:31.080Z,4.80
2022-10-18T11:11:03.229Z,5.00
2022-10-18T11:13:53.455Z,4.03
2022-10-18T11:16:47.214Z,4.65
2022-10-18T11:19:31.748Z,4.75
2022-10-18T11:21:59.766Z,6.03
2022-10-18T11:24:27.139Z,4.20
2022-10-18T11:27:06.046Z,4.05
2022-10-18T11:29:55.892Z,4.78
2022-10-18T11:32:47.958Z,5.68
2022-10-18T11:35:26.524Z,5.00
2022-10-18T11:38:22.200Z,5.25
2022-10-18T11:41:04.577Z,4.70
2022-10-18T11:44:01.652Z,5.22
2022-10-18T11:46:42.955Z,5.20
2022-10-18T11:49:28.216Z,4.72
2022-10-18T11:52:36.696Z,6.45
2022-10-18T11:55:03.084Z,7.32
2022-10-18T11:58:01.260Z,6.13
2022-10-18T12:00:47.030Z,6.28
2022-10-18T12:03:41.231Z,7.90
2022-10-18T12:06:15.410Z,6.68
2022-10-18T12:08:45.855Z,8.50
2022-10-18T12:11:19.636Z,8.70
2022-10-18T12:13:50.756Z,9.63
2022-10-18T12:16:28.896Z,9.25
2022-10-18T12:19:13.854Z,6.95
2022-10-18T12:21:40.711Z,9.57
2022-10-18T12:24:19.074Z,9.20
2022-10-18T12:26:48.600Z,9.43
2022-10-18T12:29:44.348Z,10.10
2022-10-18T12:32:19.269Z,7.90
2022-10-18T12:34:50.147Z,7.90
2022-10-18T12:37:37.719Z,7.97
2022-10-18T12:40:33.655Z,8.88
2022-10-18T12:43:03.415Z,10.30
2022-10-18T12:45:34.176Z,8.65
2022-10-18T12:48:05.731Z,7.10
2022-10-18T12:50:39.176Z,11.25
2022-10-18T12:53:21.275Z,8.57
2022-10-18T12:55:51.529Z,8.95
2022-10-18T12:58:22.948Z,8.80
2022-10-18T13:00:55.862Z,8.90
2022-10-18T13:03:24.955Z,10.07
2022-10-18T13:06:01.666Z,11.10
2022-10-18T13:08:30.675Z,11.68
2022-10-18T13:11:12.250Z,11.10
2022-10-18T13:14:15.629Z,8.57
2022-10-18T13:16:51.381Z,8.38
2022-10-18T13:19:47.217Z,11.25
2022-10-18T13:22:52.989Z,10.07
2022-10-18T13:25:25.158Z,8.68
2022-10-18T13:27:56.265Z,10.13
2022-10-18T13:30:41.981Z,9.25
2022-10-18T13:33:27.127Z,11.93
2022-10-18T13:36:01.060Z,11.88
2022-10-18T13:38:52.332Z,11.38
2022-10-18T13:41:34.326Z,11.68
2022-10-18T13:44:02.338Z,11.82
2022-10-18T13:46:34.655Z,12.35
2022-10-18T13:49:36.477Z,12.93
2022-10-18T13:52:34.400Z,10.07
2022-10-18T13:55:19.611Z,12.70
2022-10-18T13:58:10.107Z,9.90
2022-10-18T14:01:14.265Z,12.68
2022-10-18T14:04:02.682Z,9.85
2022-10-18T14:06:35.442Z,9.82
2022-10-18T14:09:13.915Z,9.70
2022-10-18T14:11:55.361Z,9.43
2022-10-18T14:14:33.968Z,12.85
2022-10-18T14:17:31.514Z,10.50
2022-10-18T14:20:13.129Z,8.63
2022-10-18T14:22:48.360Z,8.82
2022-10-18T14:25:28.529Z,11.93
2022-10-18T14:28:15.280Z,11.93
2022-10-18T14:30:59.886Z,11.82
2022-10-18T14:33:26.363Z,10.68
2022-10-18T14:36:00.579Z,12.73
2022-10-18T14:38:27.213Z,12.45
2022-10-18T14:41:14.249Z,12.00
2022-10-18T14:43:41.241Z,11.88
2022-10-18T14:46:31.175Z,11.25
2022-10-18T14:49:00.533Z,9.18
2022-10-18T14:51:29.280Z,9.75
2022-10-18T14:53:56.211Z,13.50
2022-10-18T14:56:27.082Z,11.13
2022-10-18T14:58:55.412Z,11.18
2022-10-18T15:01:28.166Z,13.77
2022-10-18T15:04:13.246Z,16.02
2022-10-18T15:06:44.438Z,12.20
2022-10-18T15:09:12.538Z,12.48
2022-10-18T15:11:41.329Z,14.23
2022-10-18T15:14:14.133Z,11.75
2022-10-18T15:16:40.972Z,10.43
2022-10-18T15:19:27.436Z,11.43
2022-10-18T15:22:30.754Z,14.48
2022-10-18T15:25:15.300Z,10.63
2022-10-18T15:27:45.131Z,11.40
2022-10-18T15:30:39.336Z,9.82
2022-10-18T15:33:10.171Z,11.40
2022-10-18T15:35:38.153Z,10.15
2022-10-18T15:38:15.209Z,9.55
2022-10-18T15:40:42.629Z,10.43
2022-10-18T15:43:24.997Z,10.27
2022-10-18T15:46:01.581Z,9.35
2022-10-18T15:48:35.337Z,13.27
2022-10-18T15:51:05.880Z,8.88
2022-10-18T15:53:50.437Z,11.60
2022-10-18T15:56:34.555Z,12.95
2022-10-18T15:59:04.944Z,11.13
2022-10-18T16:01:42.635Z,8.55
2022-10-18T16:04:20.895Z,8.05
2022-10-18T16:06:47.322Z,10.52
2022-10-18T16:09:17.048Z,10.38
2022-10-18T16:11:44.463Z,11.63
2022-10-18T16:14:10.939Z,10.30
2022-10-18T16:16:41.308Z,10.40
2022-10-18T16:19:08.059Z,13.07
2022-10-18T16:21:37.465Z,10.27
2022-10-18T16:24:11.780Z,9.02
2022-10-18T16:26:38.729Z,9.70
2022-10-18T16:29:05.424Z,10.88
2022-10-18T16:31:33.838Z,9.43
2022-10-18T16:34:00.553Z,11.95
2022-10-18T16:36:31.107Z,11.60
2022-10-18T16:39:00.828Z,8.90
2022-10-18T16:41:27.332Z,11.55
2022-10-18T16:43:54.377Z,12.25
2022-10-18T16:46:24.334Z,8.93
2022-10-18T16:48:51.357Z,11.52
2022-10-18T16:51:17.928Z,10.50
2022-10-18T16:53:44.369Z,9.52
2022-10-18T16:56:21.640Z,11.38
2022-10-18T16:58:48.438Z,8.60
2022-10-18T17:01:16.857Z,11.27
2022-10-18T17:03:43.721Z,11.25
2022-10-18T17:06:17.860Z,10.75
2022-10-18T17:08:44.566Z,8.93
2022-10-18T17:11:12.329Z,11.48
2022-10-18T17:13:38.999Z,10.23
2022-10-18T17:16:05.639Z,11.02
2022-10-18T17:18:32.485Z,11.13
2022-10-18T17:21:02.604Z,11.48
2022-10-18T17:23:29.818Z,10.60
2022-10-18T17:26:14.931Z,11.27
2022-10-18T17:28:42.894Z,12.23
2022-10-18T17:31:09.365Z,12.10
2022-10-18T17:33:35.938Z,10.43
2022-10-18T17:36:02.968Z,10.82
2022-10-18T17:38:29.360Z,9.45
2022-10-18T17:40:56.752Z,15.60
2022-10-18T17:43:23.153Z,11.68
2022-10-18T17:45:54.563Z,12.73
2022-10-18T17:48:21.246Z,13.18
2022-10-18T17:50:47.691Z,10.77
2022-10-18T17:53:14.284Z,12.68
2022-10-18T17:55:44.281Z,13.23
2022-10-18T17:58:10.777Z,11.20
2022-10-18T18:00:37.853Z,12.18
2022-10-18T18:03:04.428Z,9.57
2022-10-18T18:05:32.555Z,12.38
2022-10-18T18:08:02.944Z,17.25
2022-10-18T18:10:32.999Z,12.55
2022-10-18T18:12:59.585Z,13.90
2022-10-18T18:15:26.251Z,12.80
2022-10-18T18:17:57.025Z,11.40
2022-10-18T18:20:24.531Z,10.48
2022-10-18T18:22:51.369Z,11.23
2022-10-18T18:25:17.914Z,10.60
2022-10-18T18:27:44.407Z,14.57
2022-10-18T18:30:11.103Z,12.10
2022-10-18T18:32:37.615Z,15.93
2022-10-18T18:35:04.318Z,14.23
2022-10-18T18:37:30.860Z,15.63
2022-10-18T18:39:57.272Z,11.30
2022-10-18T18:42:23.724Z,10.77
2022-10-18T18:44:50.522Z,14.02
2022-10-18T18:49:51.949Z,12.68
2022-10-18T18:52:18.526Z,11.10
2022-10-18T18:54:45.155Z,9.55
2022-10-18T18:57:11.856Z,16.35
2022-10-18T18:59:38.342Z,9.63
2022-10-18T19:02:04.807Z,13.75
2022-10-18T19:04:31.340Z,15.25
2022-10-18T19:06:57.845Z,13.18
2022-10-18T19:09:26.380Z,13.48
2022-10-18T19:11:54.785Z,15.82
2022-10-18T19:14:25.763Z,11.07
2022-10-18T19:16:54.365Z,12.48
2022-10-18T19:19:22.928Z,13.43
2022-10-18T19:21:54.862Z,13.32
2022-10-18T19:24:23.512Z,11.13
2022-10-18T19:26:55.815Z,11.27
2022-10-18T19:29:33.486Z,8.57
2022-10-18T19:32:01.785Z,10.85
2022-10-18T19:34:30.736Z,9.40
2022-10-18T19:36:57.472Z,10.90
2022-10-18T19:39:32.087Z,10.98
2022-10-18T19:42:03.032Z,11.50
2022-10-18T19:44:31.515Z,13.27
2022-10-18T19:46:58.287Z,13.13
2022-10-18T19:49:24.955Z,11.85
2022-10-18T19:51:51.510Z,14.45
2022-10-18T19:54:18.141Z,12.85
2022-10-18T19:56:44.853Z,9.25
2022-10-18T19:59:15.595Z,9.45
2022-10-18T20:01:42.707Z,11.18
2022-10-18T20:04:10.135Z,11.63
2022-10-18T20:06:38.012Z,11.25
2022-10-18T20:09:06.074Z,11.35
2022-10-18T20:11:47.087Z,11.35
2022-10-18T20:14:13.464Z,9.60
2022-10-18T20:16:39.882Z,12.90
2022-10-18T20:19:09.619Z,13.13
2022-10-18T20:21:36.470Z,10.52
2022-10-18T20:24:09.598Z,10.23
2022-10-18T20:26:36.395Z,11.82
2022-10-18T20:29:03.639Z,12.90
2022-10-18T20:31:32.281Z,11.55
2022-10-18T20:34:01.352Z,8.73
2022-10-18T20:36:28.840Z,11.30
2022-10-18T20:38:55.489Z,11.13
2022-10-18T20:41:27.175Z,8.23
2022-10-18T20:43:55.607Z,10.70
2022-10-18T20:46:22.099Z,10.07
2022-10-18T20:48:52.924Z,12.05
2022-10-18T20:51:20.796Z,9.73
2022-10-18T20:53:47.595Z,12.30
2022-10-18T20:56:16.263Z,9.55
2022-10-18T20:58:44.022Z,13.35
2022-10-18T21:01:16.671Z,11.48
2022-10-18T21:03:48.000Z,10.50
2022-10-18T21:06:22.879Z,14.82
2022-10-18T21:08:54.270Z,10.98
2022-10-18T21:11:20.721Z,10.07
2022-10-18T21:13:54.472Z,9.60
2022-10-18T21:16:24.963Z,8.75
2022-10-18T21:18:51.465Z,9.07
2022-10-18T21:21:23.811Z,8.90
2022-10-18T21:23:51.314Z,10.43
2022-10-18T21:26:22.902Z,8.25
2022-10-18T21:28:50.528Z,9.77
2022-10-18T21:31:21.737Z,11.55
2022-10-18T21:33:53.308Z,10.88
2022-10-18T21:36:20.276Z,10.40
2022-10-18T21:38:46.787Z,11.15
2022-10-18T21:41:15.780Z,10.35
2022-10-18T21:43:44.688Z,9.57
2022-10-18T21:46:12.102Z,9.73
2022-10-18T21:48:39.144Z,9.68
2022-10-18T21:51:07.605Z,11.07
2022-10-18T21:53:34.704Z,9.68
2022-10-18T21:56:13.425Z,8.35
2022-10-18T21:58:40.997Z,10.18
2022-10-18T22:01:34.853Z,13.25
2022-10-18T22:04:03.162Z,13.70
2022-10-18T22:06:32.376Z,10.68
2022-10-18T22:09:01.459Z,8.23
2022-10-18T22:11:35.046Z,10.18
2022-10-18T22:14:01.593Z,11.07
2022-10-18T22:16:28.503Z,12.27
2022-10-18T22:18:59.906Z,12.88
2022-10-18T22:21:26.541Z,12.57
2022-10-18T22:23:57.833Z,11.95
2022-10-18T22:26:29.634Z,8.60
2022-10-18T22:29:19.893Z,9.98
2022-10-18T22:31:52.022Z,11.73
2022-10-18T22:34:26.157Z,11.15
2022-10-18T22:36:52.570Z,7.40
2022-10-18T22:39:19.185Z,8.77
2022-10-18T22:41:46.804Z,11.18
2022-10-18T22:44:14.455Z,7.88
2022-10-18T22:46:41.839Z,9.00
2022-10-18T22:49:08.413Z,9.88
2022-10-18T22:54:06.439Z,13.48
2022-10-18T22:56:32.981Z,9.05
2022-10-18T22:58:59.367Z,9.75
2022-10-18T23:01:29.053Z,8.13
2022-10-18T23:03:59.067Z,11.90
2022-10-18T23:06:34.482Z,9.73
2022-10-18T23:09:05.004Z,10.30
2022-10-18T23:11:32.452Z,9.93
2022-10-18T23:13:58.894Z,9.20
2022-10-18T23:16:25.840Z,11.02
2022-10-18T23:18:54.733Z,9.45
2022-10-18T23:21:23.707Z,10.27
2022-10-18T23:23:50.977Z,11.55
2022-10-18T23:26:20.005Z,8.93
2022-10-18T23:28:47.948Z,11.25
2022-10-18T23:31:20.003Z,9.88
2022-10-18T23:33:48.122Z,9.93
2022-10-18T23:36:14.901Z,9.60
2022-10-18T23:38:41.933Z,8.63
2022-10-18T23:41:10.046Z,9.07
2022-10-18T23:43:36.559Z,9.18
2022-10-18T23:46:04.658Z,13.27
2022-10-18T23:48:41.524Z,9.68
2022-10-18T23:51:08.775Z,11.30
2022-10-18T23:53:35.669Z,12.55
2022-10-18T23:56:04.937Z,12.20
2022-10-18T23:58:37.289Z,12.15
